Airfield :
LOGIN :

Register | Disclaimer

   EN    FR    IT 

 










Legend :    VFR   Marginal VFR   IFR   Intensive IFR   Very Intensive IFR
Visi :
Ceiling :
>= 8 km
>= 3000ft
5 to 8 km
1000 to 3000 ft
1500m to 5 km
500 to 1000 ft
800 to 1500m
200 to 500 ft
< 800m
< 200 ft
Symbols :   Thunderstorms  Fog  Heavy snow  Heavy precipitations  Wind > 20 kt
SIGMETs :     Misc.  Thunderstorms  Icing  Turbulence  Mountain Waves  Volcanic Ashes







- Airport Elevation : 52 ft
- IATA code : RNN


EKRN - Bornholm Ronne

CURRENT METAR :
  • 200050Z AUTO 32010KT 290V010 9999 BKN073/// 21/16 Q1007

EXPIRED METARs :
  • 200020Z AUTO 08006KT 9999 SCT080/// 20/16 Q1006
  • 192350Z AUTO 09007KT 9999 NCD 19/16 Q1006
  • 192320Z AUTO 09006KT 9999 NCD 19/16 Q1007
  • 192250Z AUTO 08007KT 9999 NCD 19/16 Q1007
  • 192220Z AUTO 08007KT 9999 NCD 19/15 Q1007

Expired Forecast.
No reported NOTAMs for that airfield.
1 SIGMET reported for the Sweden FIR (ESAA) :
 
Frequent thunderstorms
ESAA SIGMET 2 VALID 192330/200100 ESSA
ESAA SWEDEN FIR FRQ TS FCST WI N5455 E01408 - N5527 E01431 - N5549 E01316 - N5516 E01241 - N5455 E01251 - N5455 E01408 TOP FL380 MOV N 20 KT NC=



MET'MAP, your aeronautical weather chart ! - Copyright ORBIFLY December 2007 - Disclaimer

ORBIFLY MET'MAP TEAM :

Programming & Development : Alexandra Zaïnal
Concept & Development : Baudouin d'Aumeries
Co-Development & Prog : Marc-Olivier Méhu
Technical & hardware support : Manuel Goepfert

Contact : metmap@orbifly.com




SOURCES & CREDITS :

   NOAA